createdAt,value
2022-09-17T04:17:03.957Z,80.61
2022-09-17T04:19:30.466Z,80.86
2022-09-17T04:21:57.004Z,81.35
2022-09-17T04:24:23.422Z,81.80
2022-09-17T04:26:49.919Z,81.36
2022-09-17T04:29:16.360Z,81.12
2022-09-17T04:31:42.878Z,80.95
2022-09-17T04:34:09.368Z,81.06
2022-09-17T04:36:35.844Z,80.66
2022-09-17T04:39:02.347Z,80.31
2022-09-17T04:41:28.795Z,80.76
2022-09-17T04:43:55.283Z,80.54
2022-09-17T04:46:21.755Z,80.43
2022-09-17T04:48:48.241Z,80.28
2022-09-17T04:51:14.779Z,79.61
2022-09-17T04:53:41.258Z,79.02
2022-09-17T04:56:07.680Z,78.43
2022-09-17T04:58:34.202Z,78.66
2022-09-17T05:01:00.717Z,79.21
2022-09-17T05:03:27.200Z,79.00
2022-09-17T05:05:53.625Z,78.95
2022-09-17T05:08:22.825Z,79.22
2022-09-17T05:10:51.458Z,79.75
2022-09-17T05:13:18.855Z,80.05
2022-09-17T05:15:45.326Z,78.87
2022-09-17T05:18:11.790Z,78.44
2022-09-17T05:20:38.647Z,78.36
2022-09-17T05:23:05.304Z,78.20
2022-09-17T05:25:32.404Z,78.57
2022-09-17T05:28:01.225Z,78.07
2022-09-17T05:30:27.661Z,78.07
2022-09-17T05:33:02.029Z,78.39
2022-09-17T05:35:29.826Z,77.64
2022-09-17T05:38:00.677Z,77.47
2022-09-17T05:40:28.120Z,77.49
2022-09-17T05:43:02.467Z,77.87
2022-09-17T05:45:30.239Z,77.57
2022-09-17T05:47:58.367Z,77.48
2022-09-17T05:50:26.077Z,77.79
2022-09-17T05:52:53.716Z,77.92
2022-09-17T05:55:22.257Z,77.43
2022-09-17T05:57:49.867Z,77.37
2022-09-17T06:00:16.577Z,77.71
2022-09-17T06:02:43.177Z,78.36
2022-09-17T06:05:10.260Z,78.47
2022-09-17T06:07:37.919Z,78.05
2022-09-17T06:10:06.611Z,77.86
2022-09-17T06:12:35.456Z,77.82
2022-09-17T06:15:03.656Z,78.23
2022-09-17T06:17:34.866Z,78.54
2022-09-17T06:20:02.379Z,77.08
2022-09-17T06:22:30.053Z,77.16
2022-09-17T06:24:56.653Z,76.47
2022-09-17T06:27:23.112Z,75.51
2022-09-17T06:29:49.517Z,75.78
2022-09-17T06:32:16.994Z,75.55
2022-09-17T06:34:43.905Z,74.42
2022-09-17T06:37:10.455Z,74.42
2022-09-17T06:39:37.158Z,73.55
2022-09-17T06:42:03.824Z,73.17
2022-09-17T06:44:30.463Z,73.02
2022-09-17T06:46:56.970Z,73.45
2022-09-17T06:49:24.137Z,72.63
2022-09-17T06:51:50.714Z,72.75
2022-09-17T06:54:17.322Z,72.67
2022-09-17T06:56:46.895Z,73.47
2022-09-17T06:59:13.872Z,72.75
2022-09-17T07:01:40.475Z,72.14
2022-09-17T07:04:06.945Z,71.42
2022-09-17T07:06:33.424Z,72.54
2022-09-17T07:08:59.973Z,71.99
2022-09-17T07:11:26.423Z,72.14
2022-09-17T07:13:52.954Z,72.57
2022-09-17T07:16:19.727Z,72.02
2022-09-17T07:18:46.373Z,72.63
2022-09-17T07:21:12.910Z,72.70
2022-09-17T07:23:39.438Z,72.22
2022-09-17T07:26:12.122Z,72.18
2022-09-17T07:28:40.084Z,71.96
2022-09-17T07:31:10.251Z,71.42
2022-09-17T07:33:40.474Z,70.38
2022-09-17T07:36:11.139Z,69.95
2022-09-17T07:38:38.787Z,68.40
2022-09-17T07:41:14.650Z,67.45
2022-09-17T07:43:42.216Z,68.14
2022-09-17T07:46:14.477Z,67.71
2022-09-17T07:48:40.997Z,66.63
2022-09-17T07:51:07.547Z,66.83
2022-09-17T07:53:34.262Z,66.75
2022-09-17T07:56:01.115Z,66.96
2022-09-17T07:58:33.555Z,66.66
2022-09-17T08:01:08.572Z,66.85
2022-09-17T08:03:36.243Z,67.78
2022-09-17T08:06:06.981Z,68.35
2022-09-17T08:08:35.833Z,68.25
2022-09-17T08:11:04.424Z,67.25
2022-09-17T08:13:30.945Z,67.62
2022-09-17T08:16:02.235Z,67.01
2022-09-17T08:18:29.804Z,66.07
2022-09-17T08:20:58.322Z,65.34
2022-09-17T08:23:25.794Z,64.91
2022-09-17T08:25:53.873Z,64.24
2022-09-17T08:28:20.658Z,64.23
2022-09-17T08:30:48.452Z,63.11
2022-09-17T08:33:15.206Z,64.17
2022-09-17T08:35:41.710Z,63.94
2022-09-17T08:38:08.379Z,63.33
2022-09-17T08:40:45.512Z,62.38
2022-09-17T08:43:18.346Z,62.36
2022-09-17T08:45:45.059Z,61.99
2022-09-17T08:48:14.429Z,61.38
2022-09-17T08:50:42.678Z,61.89
2022-09-17T08:53:22.413Z,61.59
2022-09-17T08:56:13.293Z,60.58
2022-09-17T08:59:02.215Z,59.06
2022-09-17T09:01:34.619Z,58.77
2022-09-17T09:04:07.676Z,59.79
2022-09-17T09:06:37.996Z,59.84
2022-09-17T09:09:17.108Z,58.15
2022-09-17T09:11:46.915Z,57.42
2022-09-17T09:14:18.488Z,56.41
2022-09-17T09:16:45.892Z,56.37
2022-09-17T09:19:27.122Z,55.57
2022-09-17T09:22:21.678Z,54.08
2022-09-17T09:25:11.857Z,53.73
2022-09-17T09:28:10.701Z,53.71
2022-09-17T09:30:56.911Z,53.77
2022-09-17T09:33:37.590Z,55.82
2022-09-17T09:36:07.978Z,55.01
2022-09-17T09:38:48.824Z,55.88
2022-09-17T09:41:27.294Z,55.19
2022-09-17T09:44:09.222Z,56.76
2022-09-17T09:47:06.302Z,57.95
2022-09-17T09:49:53.555Z,57.57
2022-09-17T09:52:32.759Z,56.52
2022-09-17T09:55:26.764Z,56.49
2022-09-17T09:58:17.821Z,55.94
2022-09-17T10:00:44.450Z,55.24
2022-09-17T10:03:10.918Z,54.23
2022-09-17T10:05:37.395Z,54.14
2022-09-17T10:08:14.730Z,54.02
2022-09-17T10:11:02.691Z,53.42
2022-09-17T10:13:39.103Z,53.95
2022-09-17T10:16:20.684Z,54.50
2022-09-17T10:18:48.877Z,53.86
2022-09-17T10:21:22.511Z,54.12
2022-09-17T10:23:50.483Z,53.87
2022-09-17T10:26:36.950Z,53.17
2022-09-17T10:29:28.125Z,52.80
2022-09-17T10:31:57.185Z,53.16
2022-09-17T10:34:27.569Z,52.80
2022-09-17T10:36:56.570Z,53.62
2022-09-17T10:39:29.187Z,53.14
2022-09-17T10:42:13.244Z,52.47
2022-09-17T10:44:54.491Z,51.87
2022-09-17T10:47:30.813Z,52.63
2022-09-17T10:50:03.932Z,51.79
2022-09-17T10:52:42.119Z,51.25
2022-09-17T10:55:11.512Z,51.15
2022-09-17T10:58:09.978Z,51.11
2022-09-17T11:00:45.502Z,49.17
2022-09-17T11:03:49.601Z,48.53
2022-09-17T11:07:06.530Z,48.80
2022-09-17T11:09:54.128Z,49.12
2022-09-17T11:12:40.696Z,48.60
2022-09-17T11:15:17.137Z,49.01
2022-09-17T11:18:10.783Z,50.10
2022-09-17T11:20:56.036Z,49.56
2022-09-17T11:23:42.330Z,49.59
2022-09-17T11:26:30.059Z,48.73
2022-09-17T11:29:21.089Z,48.20
2022-09-17T11:32:05.331Z,53.60
2022-09-17T11:34:45.037Z,53.41
2022-09-17T11:37:11.406Z,58.97
2022-09-17T11:39:57.262Z,59.87
2022-09-17T11:42:46.430Z,57.85
2022-09-17T11:45:25.763Z,59.58
2022-09-17T11:47:58.745Z,59.98
2022-09-17T11:50:33.166Z,56.67
2022-09-17T11:56:25.558Z,46.41
2022-09-17T11:59:12.234Z,42.73
2022-09-17T12:01:48.877Z,39.13
2022-09-17T12:04:34.243Z,39.03
2022-09-17T12:07:18.928Z,34.95
2022-09-17T12:09:53.760Z,32.11
2022-09-17T12:12:47.592Z,32.75
2022-09-17T12:15:19.973Z,32.97
2022-09-17T12:18:27.625Z,34.41
2022-09-17T12:20:52.341Z,33.15
2022-09-17T12:23:38.625Z,37.15
2022-09-17T12:26:14.882Z,36.99
2022-09-17T12:29:06.959Z,34.52
2022-09-17T12:31:53.311Z,34.56
2022-09-17T12:34:29.997Z,33.62
2022-09-17T12:37:08.434Z,33.77
2022-09-17T12:39:45.526Z,33.48
2022-09-17T12:42:28.791Z,35.64
2022-09-17T12:45:08.065Z,34.24
2022-09-17T12:48:09.977Z,34.95
2022-09-17T12:51:03.136Z,32.90
2022-09-17T12:53:36.973Z,33.48
2022-09-17T12:56:31.621Z,35.09
2022-09-17T12:59:08.102Z,34.27
2022-09-17T13:02:15.489Z,31.87
2022-09-17T13:05:09.889Z,31.43
2022-09-17T13:08:14.000Z,31.58
2022-09-17T13:10:43.523Z,30.24
2022-09-17T13:13:34.787Z,30.04
2022-09-17T13:16:13.351Z,31.69
2022-09-17T13:19:16.661Z,31.36
2022-09-17T13:21:56.452Z,31.80
2022-09-17T13:24:27.013Z,32.00
2022-09-17T13:26:54.858Z,33.08
2022-09-17T13:29:46.446Z,32.03
2022-09-17T13:32:35.005Z,32.11
2022-09-17T13:35:14.431Z,30.32
2022-09-17T13:37:44.251Z,29.72
2022-09-17T13:40:23.010Z,31.69
2022-09-17T13:42:55.374Z,31.41
2022-09-17T13:45:23.604Z,31.64
2022-09-17T13:48:02.948Z,31.51
2022-09-17T13:50:35.255Z,34.75
2022-09-17T13:53:16.916Z,35.51
2022-09-17T13:55:52.307Z,37.03
2022-09-17T13:58:18.782Z,37.27
2022-09-17T14:00:51.319Z,37.87
2022-09-17T14:03:41.715Z,37.47
2022-09-17T14:06:08.524Z,35.26
2022-09-17T14:08:43.984Z,32.68
2022-09-17T14:11:22.636Z,31.41
2022-09-17T14:13:57.979Z,32.10
2022-09-17T14:16:42.618Z,31.08
2022-09-17T14:19:15.302Z,31.94
2022-09-17T14:21:57.184Z,34.40
2022-09-17T14:24:26.745Z,36.84
2022-09-17T14:27:14.588Z,43.77
2022-09-17T14:29:59.898Z,49.98
2022-09-17T14:33:02.549Z,50.64
2022-09-17T14:35:41.593Z,52.52
2022-09-17T14:38:10.232Z,55.58
2022-09-17T14:40:45.000Z,58.60
2022-09-17T14:43:20.481Z,56.74
2022-09-17T14:45:51.910Z,56.82
2022-09-17T14:48:26.009Z,56.33
2022-09-17T14:50:52.577Z,54.17
2022-09-17T14:53:21.019Z,50.00
2022-09-17T14:55:50.165Z,48.89
2022-09-17T14:58:37.717Z,45.43
2022-09-17T15:01:04.357Z,45.40
2022-09-17T15:03:30.772Z,45.71
2022-09-17T15:05:57.245Z,43.04
2022-09-17T15:08:27.862Z,44.58
2022-09-17T15:10:58.004Z,45.27
2022-09-17T15:13:30.300Z,46.71
2022-09-17T15:16:12.630Z,47.44
2022-09-17T15:19:05.730Z,48.58
2022-09-17T15:21:40.535Z,49.92
2022-09-17T15:24:15.996Z,50.39
2022-09-17T15:26:45.301Z,49.59
2022-09-17T15:29:21.627Z,49.12
2022-09-17T15:31:48.297Z,50.10
2022-09-17T15:34:14.989Z,49.44
2022-09-17T15:37:05.716Z,48.02
2022-09-17T15:39:40.160Z,48.72
2022-09-17T15:42:18.212Z,48.72
2022-09-17T15:44:44.929Z,49.72
2022-09-17T15:47:37.863Z,52.08
2022-09-17T15:50:25.523Z,60.68
2022-09-17T15:53:12.102Z,58.75
2022-09-17T15:55:45.865Z,60.50
2022-09-17T15:58:29.019Z,61.47
2022-09-17T16:01:14.398Z,62.17
2022-09-17T16:03:40.853Z,61.66
2022-09-17T16:06:22.497Z,62.65
2022-09-17T16:08:50.556Z,63.01
2022-09-17T16:11:20.745Z,62.00
2022-09-17T16:13:48.363Z,64.20
2022-09-17T16:16:20.940Z,64.31
2022-09-17T16:18:48.301Z,63.48
2022-09-17T16:21:16.353Z,64.23
2022-09-17T16:23:43.122Z,63.55
2022-09-17T16:26:16.976Z,62.07
2022-09-17T16:28:44.543Z,62.19
2022-09-17T16:31:13.558Z,61.36
2022-09-17T16:33:40.538Z,60.77
2022-09-17T16:36:07.544Z,61.03
2022-09-17T16:38:34.071Z,61.01
2022-09-17T16:41:00.559Z,60.21
2022-09-17T16:43:27.117Z,59.07
2022-09-17T16:46:04.062Z,58.69
2022-09-17T16:48:31.551Z,59.89
2022-09-17T16:50:58.366Z,60.14
2022-09-17T16:53:24.989Z,60.60
2022-09-17T16:55:51.561Z,61.36
2022-09-17T16:58:18.001Z,63.08
2022-09-17T17:00:45.003Z,62.88
2022-09-17T17:03:13.254Z,62.36
2022-09-17T17:05:40.287Z,64.04
2022-09-17T17:08:07.649Z,63.75
2022-09-17T17:10:34.952Z,63.50
2022-09-17T17:13:01.693Z,65.18
2022-09-17T17:15:30.343Z,64.39
2022-09-17T17:17:57.501Z,65.76
2022-09-17T17:20:24.046Z,64.57
2022-09-17T17:22:52.851Z,64.75
2022-09-17T17:25:19.622Z,65.63
2022-09-17T17:27:46.096Z,67.25
2022-09-17T17:30:17.226Z,67.72
2022-09-17T17:32:48.813Z,67.10
2022-09-17T17:35:15.678Z,66.15
2022-09-17T17:37:42.482Z,65.90
2022-09-17T17:40:10.173Z,66.72
2022-09-17T17:42:39.446Z,67.48
2022-09-17T17:45:07.489Z,68.33
2022-09-17T17:47:34.748Z,67.45
2022-09-17T17:50:01.196Z,68.48
2022-09-17T17:52:28.014Z,68.83
2022-09-17T17:54:54.540Z,69.21
2022-09-17T17:57:21.100Z,69.72
2022-09-17T17:59:47.705Z,69.45
2022-09-17T18:02:14.391Z,69.11
2022-09-17T18:04:40.980Z,67.30
2022-09-17T18:07:07.754Z,66.96
2022-09-17T18:09:34.351Z,66.62
2022-09-17T18:12:00.893Z,65.60
2022-09-17T18:14:27.462Z,66.64
2022-09-17T18:16:54.330Z,66.38
2022-09-17T18:19:20.844Z,66.77
2022-09-17T18:21:47.401Z,66.30
2022-09-17T18:24:13.984Z,67.16
2022-09-17T18:26:40.474Z,68.15
2022-09-17T18:29:08.148Z,68.46
2022-09-17T18:31:35.882Z,69.17
2022-09-17T18:34:06.155Z,69.14
2022-09-17T18:36:35.320Z,69.98
2022-09-17T18:41:52.731Z,70.28
2022-09-17T18:44:21.536Z,70.36
2022-09-17T18:46:49.500Z,70.41
2022-09-17T18:49:16.211Z,69.99
2022-09-17T18:51:42.796Z,70.17
2022-09-17T18:54:15.321Z,69.94
2022-09-17T18:56:42.240Z,69.55
2022-09-17T18:59:09.907Z,70.09
2022-09-17T19:01:36.534Z,69.18
2022-09-17T19:04:03.854Z,69.26
2022-09-17T19:06:31.930Z,69.12
2022-09-17T19:09:03.084Z,69.18
2022-09-17T19:11:30.182Z,68.71
2022-09-17T19:13:56.745Z,68.50
2022-09-17T19:16:23.347Z,69.57
2022-09-17T19:18:50.028Z,70.42
2022-09-17T19:21:20.468Z,70.01
2022-09-17T19:23:49.394Z,69.60
2022-09-17T19:26:18.826Z,70.35
2022-09-17T19:28:45.623Z,70.93
2022-09-17T19:31:14.638Z,71.06
2022-09-17T19:33:41.261Z,71.17
2022-09-17T19:36:11.337Z,70.98
2022-09-17T19:38:38.170Z,71.53
2022-09-17T19:41:14.172Z,71.34
2022-09-17T19:43:41.425Z,71.92
2022-09-17T19:46:11.532Z,72.44
2022-09-17T19:48:46.546Z,73.45
2022-09-17T19:51:13.886Z,73.75
2022-09-17T19:53:40.728Z,74.42
2022-09-17T19:56:10.618Z,74.34
2022-09-17T19:58:37.117Z,75.19
2022-09-17T20:01:03.745Z,75.10
2022-09-17T20:03:30.221Z,75.20
2022-09-17T20:06:01.582Z,75.34
2022-09-17T20:08:28.732Z,74.79
2022-09-17T20:10:55.903Z,74.32
2022-09-17T20:13:23.487Z,74.58
2022-09-17T20:15:50.026Z,74.62
2022-09-17T20:18:19.913Z,74.90
2022-09-17T20:20:50.108Z,75.18
2022-09-17T20:23:16.670Z,74.75
2022-09-17T20:25:45.785Z,75.12
2022-09-17T20:28:12.282Z,74.78
2022-09-17T20:30:38.780Z,75.56
2022-09-17T20:33:05.292Z,75.68
2022-09-17T20:35:31.915Z,76.19
2022-09-17T20:40:44.975Z,75.52
2022-09-17T20:43:11.557Z,77.08
2022-09-17T20:45:38.046Z,77.03
2022-09-17T20:48:04.856Z,78.27
2022-09-17T20:50:31.658Z,79.10
2022-09-17T20:52:58.434Z,78.78
2022-09-17T20:55:25.136Z,79.03
2022-09-17T20:57:53.762Z,78.57
2022-09-17T21:00:21.243Z,78.77
2022-09-17T21:02:52.425Z,78.36
2022-09-17T21:05:19.054Z,78.76
2022-09-17T21:07:45.822Z,79.65
2022-09-17T21:10:13.677Z,78.71
2022-09-17T21:12:40.646Z,78.17
2022-09-17T21:15:07.658Z,78.58
2022-09-17T21:17:34.753Z,78.64
2022-09-17T21:20:01.968Z,78.02
2022-09-17T21:22:28.500Z,78.19
2022-09-17T21:24:55.142Z,78.15
2022-09-17T21:27:22.180Z,78.54
2022-09-17T21:29:48.685Z,78.60
2022-09-17T21:32:15.221Z,78.81
2022-09-17T21:34:41.716Z,79.48
2022-09-17T21:37:08.149Z,80.17
2022-09-17T21:39:35.499Z,79.58
2022-09-17T21:42:02.005Z,80.35
2022-09-17T21:44:28.568Z,80.37
2022-09-17T21:46:57.617Z,81.19
2022-09-17T21:49:25.857Z,81.77
2022-09-17T21:51:52.513Z,81.94
2022-09-17T21:54:19.145Z,82.59
2022-09-17T21:56:46.571Z,83.17
2022-09-17T21:59:14.554Z,82.65
